Time;durP1;ratioP1;P1;durP2;ratioP2;P2;SDS_P1;SDS_P2;PMS_P1;PMS_P2;Temp;Humidity;BMP_temperature;BMP_pressure;BME280_temperature;BME280_humidity;BME280_pressure;Samples;Min_cycle;Max_cycle;Signal;HPM_P1;HPM_P2
2022/05/31 00:00:17;;;;;;;13.77;9.80;;;11.20;74.90;;;;;;5004254;28;20026;-73
2022/05/31 00:02:45;;;;;;;16.23;10.60;;;11.30;74.90;;;;;;5008671;28;20042;-74
2022/05/31 00:05:13;;;;;;;15.10;10.35;;;11.30;74.90;;;;;;4999197;28;20121;-74
2022/05/31 00:07:40;;;;;;;15.30;10.15;;;11.20;74.90;;;;;;5000994;28;20473;-74
2022/05/31 00:10:07;;;;;;;13.93;9.60;;;11.20;74.90;;;;;;5001097;28;20034;-74
2022/05/31 00:12:33;;;;;;;15.63;11.32;;;11.20;74.90;;;;;;5000859;28;20183;-74
2022/05/31 00:14:59;;;;;;;13.80;10.25;;;11.20;74.90;;;;;;4998339;28;20113;-74
2022/05/31 00:17:25;;;;;;;15.13;11.30;;;11.10;75.00;;;;;;5000779;28;20060;-74
2022/05/31 00:19:51;;;;;;;15.77;11.52;;;11.10;75.10;;;;;;4997752;28;20040;-74
2022/05/31 00:22:23;;;;;;;17.27;12.40;;;11.10;75.20;;;;;;5000185;28;20038;-74
2022/05/31 00:24:49;;;;;;;14.50;11.60;;;11.00;75.00;;;;;;5000351;28;20057;-75
2022/05/31 00:27:19;;;;;;;19.55;11.50;;;10.90;75.20;;;;;;5000153;28;20241;-72
2022/05/31 00:29:47;;;;;;;17.83;12.15;;;10.80;75.40;;;;;;4999846;28;20064;-74
2022/05/31 00:32:14;;;;;;;18.35;12.25;;;10.90;75.70;;;;;;5002781;28;20297;-73
2022/05/31 00:34:43;;;;;;;17.80;12.93;;;10.90;75.50;;;;;;5002437;28;20056;-75
2022/05/31 00:37:09;;;;;;;20.35;13.75;;;10.80;75.70;;;;;;5028835;28;20030;-73
2022/05/31 00:39:35;;;;;;;24.35;16.38;;;10.80;75.80;;;;;;5001618;28;20037;-74
2022/05/31 00:42:07;;;;;;;21.02;16.23;;;10.80;75.70;;;;;;4997792;28;20176;-73
2022/05/31 00:44:34;;;;;;;18.42;14.45;;;10.70;75.70;;;;;;4999138;28;20096;-74
2022/05/31 00:47:03;;;;;;;19.50;14.82;;;10.70;76.00;;;;;;5002563;28;20112;-74
2022/05/31 00:49:57;;;;;;;21.67;14.43;;;10.60;75.90;;;;;;4999150;28;20026;-73
2022/05/31 00:52:36;;;;;;;19.67;14.32;;;10.60;76.10;;;;;;4995814;28;20181;-72
2022/05/31 00:55:07;;;;;;;20.52;14.48;;;10.60;76.10;;;;;;4993733;28;20478;-75
2022/05/31 00:57:36;;;;;;;17.48;13.88;;;10.60;76.20;;;;;;5002367;28;20070;-73
2022/05/31 01:00:09;;;;;;;16.38;13.45;;;10.60;76.30;;;;;;4998034;28;20037;-74
2022/05/31 01:02:35;;;;;;;19.00;13.70;;;10.60;76.50;;;;;;4997192;28;20041;-74
2022/05/31 01:05:05;;;;;;;18.40;14.65;;;10.60;76.60;;;;;;4998507;28;20038;-75
2022/05/31 01:07:31;;;;;;;19.58;14.95;;;10.50;76.80;;;;;;4998404;28;20038;-74
2022/05/31 01:09:57;;;;;;;19.55;14.90;;;10.50;77.10;;;;;;4997310;28;20042;-75
2022/05/31 01:12:25;;;;;;;16.92;13.95;;;10.40;77.30;;;;;;4998724;28;20093;-74
2022/05/31 01:14:52;;;;;;;16.17;13.45;;;10.50;77.50;;;;;;5000545;28;20045;-72
2022/05/31 01:17:21;;;;;;;18.58;13.50;;;10.50;77.50;;;;;;4998311;28;20514;-74
2022/05/31 01:19:59;;;;;;;19.92;15.38;;;10.50;77.50;;;;;;4999903;28;20061;-74
2022/05/31 01:22:36;;;;;;;19.63;16.17;;;10.50;77.50;;;;;;4996639;28;20065;-74
2022/05/31 01:25:11;;;;;;;22.38;16.17;;;10.60;77.40;;;;;;4993807;28;20043;-75
2022/05/31 01:28:03;;;;;;;22.00;17.63;;;10.50;77.70;;;;;;4997217;28;20045;-74
2022/05/31 01:30:31;;;;;;;21.90;16.35;;;10.50;77.80;;;;;;4995261;28;20038;-75
2022/05/31 01:33:22;;;;;;;21.05;17.65;;;10.60;77.90;;;;;;5004370;28;20121;-74
2022/05/31 01:35:47;;;;;;;21.88;17.50;;;10.60;77.70;;;;;;5002320;28;20394;-73
2022/05/31 01:38:23;;;;;;;21.95;18.25;;;10.60;77.60;;;;;;4995493;28;20035;-73
2022/05/31 01:41:13;;;;;;;21.67;17.20;;;10.60;77.50;;;;;;4995465;28;20343;-74
2022/05/31 01:43:43;;;;;;;20.98;17.13;;;10.60;77.60;;;;;;5000448;28;20501;-74
2022/05/31 01:46:16;;;;;;;20.67;17.63;;;10.60;77.50;;;;;;4993710;28;20773;-74
2022/05/31 01:48:43;;;;;;;23.38;17.52;;;10.60;77.50;;;;;;4999779;28;20073;-73
2022/05/31 01:51:11;;;;;;;22.33;18.40;;;10.60;77.60;;;;;;4998266;28;20041;-73
2022/05/31 01:53:37;;;;;;;23.20;18.27;;;10.60;77.80;;;;;;5006361;28;20069;-74
2022/05/31 01:56:04;;;;;;;24.38;19.98;;;10.60;77.90;;;;;;5008335;28;20038;-74
2022/05/31 01:58:34;;;;;;;23.67;19.25;;;10.60;77.90;;;;;;5003317;28;20107;-74
2022/05/31 02:01:02;;;;;;;25.50;19.52;;;10.60;77.90;;;;;;5002468;28;20038;-74
2022/05/31 02:03:29;;;;;;;24.73;19.83;;;10.50;77.70;;;;;;5030662;28;20037;-73
2022/05/31 02:05:56;;;;;;;23.77;19.67;;;10.60;77.80;;;;;;5003560;28;20045;-72
2022/05/31 02:08:24;;;;;;;21.20;18.33;;;10.60;77.90;;;;;;4995084;28;20504;-74
2022/05/31 02:10:50;;;;;;;24.13;19.42;;;10.60;77.80;;;;;;5004417;28;20026;-73
2022/05/31 02:13:17;;;;;;;23.65;19.52;;;10.60;77.90;;;;;;4994022;28;20836;-73
2022/05/31 02:15:44;;;;;;;25.23;20.10;;;10.60;77.70;;;;;;5001490;28;20045;-73
2022/05/31 02:18:12;;;;;;;24.30;20.55;;;10.60;77.70;;;;;;5001659;28;20202;-73
2022/05/31 02:20:38;;;;;;;24.13;19.60;;;10.60;77.60;;;;;;5002277;28;20042;-74
2022/05/31 02:23:05;;;;;;;23.65;20.00;;;10.60;77.70;;;;;;5002183;28;20444;-74
2022/05/31 02:25:30;;;;;;;22.75;20.35;;;10.60;77.80;;;;;;5001844;28;20038;-73
2022/05/31 02:27:56;;;;;;;23.92;20.27;;;10.60;77.60;;;;;;5000455;28;20436;-74
2022/05/31 02:30:22;;;;;;;24.08;20.30;;;10.60;77.80;;;;;;4999439;28;20293;-72
2022/05/31 02:32:47;;;;;;;24.40;19.88;;;10.60;77.60;;;;;;5006146;28;20520;-74
2022/05/31 02:35:14;;;;;;;25.20;20.17;;;10.60;77.40;;;;;;4998918;28;20501;-75
2022/05/31 02:37:40;;;;;;;22.90;19.83;;;10.60;77.50;;;;;;4999466;28;20497;-73
2022/05/31 02:40:07;;;;;;;22.25;19.48;;;10.60;77.40;;;;;;4998296;28;20037;-74
2022/05/31 02:42:34;;;;;;;23.13;20.65;;;10.60;77.60;;;;;;5006571;28;20050;-73
2022/05/31 02:45:00;;;;;;;26.38;20.63;;;10.60;77.40;;;;;;5001162;28;20347;-74
2022/05/31 02:47:26;;;;;;;22.50;19.77;;;10.60;77.40;;;;;;4997203;28;20026;-73
2022/05/31 02:49:51;;;;;;;24.63;20.70;;;10.60;77.50;;;;;;4997403;28;20040;-74
2022/05/31 02:52:17;;;;;;;26.60;22.08;;;10.60;77.60;;;;;;5000229;28;20034;-74
2022/05/31 02:54:44;;;;;;;25.27;21.10;;;10.60;77.50;;;;;;5004764;28;20044;-74
2022/05/31 02:57:09;;;;;;;23.73;21.20;;;10.60;77.60;;;;;;5001396;28;20552;-75
2022/05/31 02:59:35;;;;;;;25.45;22.40;;;10.50;77.80;;;;;;5000003;28;20038;-74
2022/05/31 03:02:01;;;;;;;25.38;20.58;;;10.50;77.90;;;;;;5003407;28;20034;-74
2022/05/31 03:04:26;;;;;;;23.35;20.02;;;10.50;77.90;;;;;;5002300;28;20030;-74
2022/05/31 03:06:52;;;;;;;23.13;20.38;;;10.60;78.00;;;;;;5004329;28;20623;-74
2022/05/31 03:09:18;;;;;;;24.58;21.45;;;10.60;77.80;;;;;;5002308;28;20346;-73
2022/05/31 03:11:53;;;;;;;25.90;21.83;;;10.50;78.00;;;;;;5002423;28;20034;-73
2022/05/31 03:14:33;;;;;;;26.70;21.92;;;10.50;78.10;;;;;;4996614;28;20038;-74
2022/05/31 03:17:05;;;;;;;24.88;21.05;;;10.50;78.10;;;;;;5001449;28;20121;-74
2022/05/31 03:19:35;;;;;;;25.95;20.38;;;10.50;77.90;;;;;;4999255;28;20368;-73
2022/05/31 03:22:06;;;;;;;23.67;19.77;;;10.50;78.10;;;;;;4998492;28;20053;-73
2022/05/31 03:24:42;;;;;;;24.00;19.25;;;10.50;78.20;;;;;;4999627;28;20046;-73
2022/05/31 03:27:10;;;;;;;23.17;20.70;;;10.40;78.30;;;;;;4998211;28;20042;-73
2022/05/31 03:29:39;;;;;;;26.42;20.77;;;10.40;78.40;;;;;;5010123;28;20037;-74
2022/05/31 03:32:06;;;;;;;27.33;21.63;;;10.40;78.40;;;;;;5002022;28;20073;-75
2022/05/31 03:34:32;;;;;;;24.70;20.85;;;10.40;78.20;;;;;;5002124;28;20316;-74
2022/05/31 03:36:58;;;;;;;26.08;22.20;;;10.40;78.30;;;;;;4999036;28;20030;-75
2022/05/31 03:39:24;;;;;;;23.55;21.10;;;10.40;78.40;;;;;;4994063;28;20849;-74
2022/05/31 03:41:49;;;;;;;25.88;22.55;;;10.40;78.50;;;;;;4992592;28;20091;-74
2022/05/31 03:44:15;;;;;;;24.38;21.77;;;10.30;78.40;;;;;;4995422;28;20030;-74
2022/05/31 03:46:41;;;;;;;27.33;21.80;;;10.30;78.50;;;;;;4998240;28;20037;-73
2022/05/31 03:49:07;;;;;;;23.70;20.60;;;10.30;78.60;;;;;;4990498;28;20042;-74
2022/05/31 03:51:32;;;;;;;23.90;21.48;;;10.30;78.70;;;;;;4999174;28;20370;-74
2022/05/31 03:53:58;;;;;;;24.35;21.20;;;10.40;78.80;;;;;;4994454;28;20459;-72
2022/05/31 03:56:24;;;;;;;22.80;20.38;;;10.50;78.80;;;;;;5003872;28;20393;-74
2022/05/31 03:58:49;;;;;;;27.85;22.73;;;10.50;78.80;;;;;;4990909;28;20069;-74
2022/05/31 04:01:15;;;;;;;24.58;21.90;;;10.50;78.60;;;;;;4993343;28;20096;-73
2022/05/31 04:03:42;;;;;;;26.00;22.50;;;10.60;78.50;;;;;;4990118;28;20482;-74
2022/05/31 04:06:08;;;;;;;24.92;22.20;;;10.60;78.20;;;;;;5001721;28;20513;-74
2022/05/31 04:08:34;;;;;;;23.33;20.13;;;10.60;77.90;;;;;;5002782;28;20248;-74
2022/05/31 04:10:59;;;;;;;22.98;20.58;;;10.60;77.90;;;;;;5001844;28;20030;-74
2022/05/31 04:13:27;;;;;;;24.52;20.45;;;10.60;77.90;;;;;;4999870;28;20050;-73
2022/05/31 04:16:11;;;;;;;23.95;21.45;;;10.60;77.80;;;;;;5002722;28;20041;-74
2022/05/31 04:18:37;;;;;;;27.27;21.30;;;10.60;77.80;;;;;;4996831;28;20030;-74
2022/05/31 04:21:05;;;;;;;24.73;21.33;;;10.70;77.80;;;;;;4998243;28;20022;-75
2022/05/31 04:26:15;;;;;;;22.37;19.93;;;10.70;77.60;;;;;;4997418;28;20048;-74
2022/05/31 04:28:41;;;;;;;23.20;20.02;;;10.80;77.60;;;;;;4995149;28;20405;-74
2022/05/31 04:31:07;;;;;;;23.73;20.85;;;10.80;77.60;;;;;;4986409;28;20390;-75
2022/05/31 04:33:32;;;;;;;25.75;20.63;;;10.90;77.50;;;;;;4984355;28;20043;-74
2022/05/31 04:36:04;;;;;;;26.67;21.15;;;11.00;77.40;;;;;;4991546;28;20035;-74
2022/05/31 04:38:30;;;;;;;22.48;20.13;;;11.00;77.20;;;;;;5003065;28;20488;-73
2022/05/31 04:40:56;;;;;;;25.80;20.60;;;11.10;77.10;;;;;;4993185;28;20113;-74
2022/05/31 04:43:22;;;;;;;24.38;21.60;;;11.10;77.10;;;;;;4988095;28;20800;-73
2022/05/31 04:45:48;;;;;;;23.38;20.95;;;11.10;76.90;;;;;;4988760;28;20034;-74
2022/05/31 04:48:13;;;;;;;24.60;20.77;;;11.10;77.10;;;;;;4986800;28;20029;-74
2022/05/31 04:50:39;;;;;;;25.38;21.00;;;11.10;77.20;;;;;;4994122;28;20468;-74
2022/05/31 04:53:05;;;;;;;22.55;20.20;;;11.10;77.30;;;;;;4997092;28;20460;-74
2022/05/31 04:55:31;;;;;;;23.95;19.77;;;11.10;77.20;;;;;;4997094;28;20243;-74
2022/05/31 04:57:56;;;;;;;23.27;20.67;;;11.20;77.20;;;;;;4993270;28;20078;-74
2022/05/31 05:00:22;;;;;;;22.45;20.15;;;11.20;77.20;;;;;;5003225;28;20525;-74
2022/05/31 05:02:48;;;;;;;22.98;20.52;;;11.30;77.10;;;;;;4998164;28;20037;-73
2022/05/31 05:05:14;;;;;;;22.45;19.83;;;11.20;77.10;;;;;;4993694;28;20069;-73
2022/05/31 05:07:40;;;;;;;21.67;19.38;;;11.40;77.00;;;;;;5007359;28;20030;-72
2022/05/31 05:10:07;;;;;;;23.67;19.40;;;11.40;76.70;;;;;;4991301;28;20428;-72
2022/05/31 05:12:33;;;;;;;21.73;19.25;;;11.40;76.60;;;;;;4993526;28;20105;-72
2022/05/31 05:14:59;;;;;;;24.50;21.33;;;11.40;76.60;;;;;;4992289;28;20045;-72
2022/05/31 05:17:24;;;;;;;26.58;22.27;;;11.40;76.60;;;;;;4992776;28;20462;-72
2022/05/31 05:19:50;;;;;;;24.35;21.60;;;11.40;77.10;;;;;;4994689;28;20045;-72
2022/05/31 05:22:16;;;;;;;23.60;21.17;;;11.40;77.00;;;;;;4991877;28;20372;-71
2022/05/31 05:24:42;;;;;;;29.80;22.13;;;11.50;77.00;;;;;;4993643;28;20112;-72
2022/05/31 05:27:08;;;;;;;26.95;21.02;;;11.40;77.20;;;;;;4991837;28;20134;-72
2022/05/31 05:32:18;;;;;;;24.50;21.20;;;11.40;77.50;;;;;;4998442;28;20046;-73
2022/05/31 05:34:43;;;;;;;23.20;20.50;;;11.40;77.60;;;;;;4992879;28;20033;-73
2022/05/31 05:37:09;;;;;;;25.38;21.45;;;11.40;77.60;;;;;;5000860;28;20450;-73
2022/05/31 05:39:34;;;;;;;25.48;22.23;;;11.50;77.90;;;;;;5004595;28;20038;-72
2022/05/31 05:42:00;;;;;;;23.52;21.02;;;11.50;77.70;;;;;;4996836;28;20042;-74
2022/05/31 05:44:26;;;;;;;22.35;19.40;;;11.60;77.60;;;;;;5002378;28;20592;-71
2022/05/31 05:46:52;;;;;;;24.85;20.88;;;11.70;77.40;;;;;;5006789;28;20041;-71
2022/05/31 05:49:18;;;;;;;24.30;21.73;;;11.80;77.00;;;;;;5004852;28;20037;-72
2022/05/31 05:51:45;;;;;;;24.45;21.02;;;12.00;76.90;;;;;;5003703;28;20027;-73
2022/05/31 05:54:12;;;;;;;25.10;20.95;;;12.50;76.30;;;;;;4999691;28;20092;-72
2022/05/31 05:56:37;;;;;;;22.90;20.58;;;12.90;74.20;;;;;;5009227;28;20440;-71
2022/05/31 05:59:03;;;;;;;24.23;20.98;;;13.30;73.90;;;;;;5005943;28;20025;-71
2022/05/31 06:01:42;;;;;;;26.00;20.02;;;13.60;72.00;;;;;;5007016;28;20045;-72
2022/05/31 06:04:18;;;;;;;25.98;20.60;;;13.70;71.10;;;;;;5002990;28;20045;-74
2022/05/31 06:06:45;;;;;;;23.85;20.20;;;14.00;70.70;;;;;;5009783;28;20046;-72
2022/05/31 06:09:18;;;;;;;22.25;18.90;;;14.30;69.40;;;;;;5006273;28;20116;-74
2022/05/31 06:11:50;;;;;;;22.80;20.25;;;14.50;68.60;;;;;;5002195;28;20030;-73
2022/05/31 06:14:15;;;;;;;26.25;18.95;;;14.60;67.90;;;;;;5002749;28;20051;-70
2022/05/31 06:17:01;;;;;;;22.38;17.55;;;14.70;67.20;;;;;;5003666;28;20049;-70
2022/05/31 06:19:33;;;;;;;21.60;16.58;;;14.90;65.40;;;;;;5008321;28;20030;-71
2022/05/31 06:22:00;;;;;;;22.70;16.48;;;15.00;64.60;;;;;;4997243;28;20026;-71
2022/05/31 06:24:30;;;;;;;23.80;17.70;;;15.00;65.00;;;;;;4994364;28;20146;-72
2022/05/31 06:26:56;;;;;;;25.67;16.65;;;15.00;64.70;;;;;;4992425;28;20478;-72
2022/05/31 06:29:22;;;;;;;20.83;15.48;;;15.10;63.00;;;;;;4998212;28;20034;-70
2022/05/31 06:31:47;;;;;;;21.85;15.43;;;15.10;63.10;;;;;;5002863;28;20029;-73
2022/05/31 06:34:13;;;;;;;19.95;15.65;;;15.20;62.90;;;;;;4997420;28;20563;-71
2022/05/31 06:36:41;;;;;;;24.08;15.38;;;15.30;62.20;;;;;;5000551;28;20101;-73
2022/05/31 06:39:08;;;;;;;21.67;15.45;;;15.20;61.80;;;;;;4999849;28;20405;-71
2022/05/31 06:41:35;;;;;;;19.15;12.95;;;15.10;61.00;;;;;;5003210;28;20508;-71
2022/05/31 06:44:00;;;;;;;22.15;12.63;;;15.10;60.00;;;;;;4992441;28;20563;-72
2022/05/31 06:46:26;;;;;;;19.67;12.32;;;15.30;59.80;;;;;;4997065;28;20773;-71
2022/05/31 06:48:53;;;;;;;19.88;13.90;;;15.60;59.00;;;;;;4999951;28;20436;-72
2022/05/31 06:56:57;;;;;;;17.40;11.07;;;16.00;56.80;;;;;;5002606;28;20029;-72
2022/05/31 06:59:23;;;;;;;16.35;11.38;;;16.10;56.40;;;;;;5003826;28;20469;-73
2022/05/31 07:01:49;;;;;;;19.33;11.90;;;16.20;55.20;;;;;;5002602;28;20087;-72
2022/05/31 07:04:15;;;;;;;17.58;11.43;;;16.30;55.30;;;;;;5009803;28;20033;-74
2022/05/31 07:06:41;;;;;;;18.42;11.55;;;16.30;54.90;;;;;;4998498;28;20524;-72
2022/05/31 07:09:06;;;;;;;17.73;11.77;;;16.40;55.50;;;;;;5002608;28;20186;-73
2022/05/31 07:11:33;;;;;;;22.30;13.10;;;16.60;55.50;;;;;;5003284;28;20040;-70
2022/05/31 07:14:00;;;;;;;17.83;12.60;;;16.70;54.80;;;;;;5000424;28;20037;-71
2022/05/31 07:16:26;;;;;;;19.73;12.63;;;16.80;54.30;;;;;;4999987;28;20084;-72
2022/05/31 07:18:52;;;;;;;18.25;13.13;;;16.80;54.50;;;;;;5003235;28;20049;-71
2022/05/31 07:21:18;;;;;;;16.38;12.68;;;17.10;54.00;;;;;;5003199;28;20120;-72
2022/05/31 07:23:43;;;;;;;15.15;10.15;;;17.40;55.40;;;;;;5002024;28;20044;-71
2022/05/31 07:26:12;;;;;;;13.23;10.05;;;17.50;53.10;;;;;;5008068;28;20050;-73
2022/05/31 07:28:37;;;;;;;16.40;10.38;;;17.60;52.00;;;;;;5000834;28;20021;-71
2022/05/31 07:31:03;;;;;;;17.23;10.75;;;17.60;52.20;;;;;;5002578;28;20033;-72
2022/05/31 07:33:29;;;;;;;14.57;10.65;;;17.70;52.50;;;;;;4995119;28;20034;-73
2022/05/31 07:35:54;;;;;;;14.90;10.60;;;17.80;52.50;;;;;;4992073;28;20125;-71
2022/05/31 07:38:20;;;;;;;15.02;10.38;;;18.00;52.20;;;;;;4991599;28;20033;-72
2022/05/31 07:40:47;;;;;;;18.80;11.52;;;17.80;51.40;;;;;;4998496;28;20097;-71
2022/05/31 07:43:13;;;;;;;15.65;11.50;;;17.60;52.90;;;;;;5001965;28;20042;-73
2022/05/31 07:45:39;;;;;;;15.90;10.77;;;17.80;52.50;;;;;;4997676;28;20429;-72
2022/05/31 07:48:05;;;;;;;15.82;9.57;;;17.70;51.90;;;;;;5004289;28;20036;-71
2022/05/31 07:50:31;;;;;;;14.93;10.68;;;18.00;50.80;;;;;;4994040;28;20029;-71
2022/05/31 07:52:59;;;;;;;12.93;9.80;;;18.20;51.40;;;;;;5000210;28;20038;-74
2022/05/31 07:55:25;;;;;;;14.07;10.38;;;18.20;50.80;;;;;;5002301;28;20061;-71
2022/05/31 08:00:35;;;;;;;15.95;10.68;;;18.00;50.10;;;;;;4999599;28;20084;-70
2022/05/31 08:03:02;;;;;;;16.77;10.68;;;17.80;51.10;;;;;;5007011;28;20022;-72
2022/05/31 08:05:30;;;;;;;14.65;10.43;;;17.70;52.10;;;;;;5007839;28;20050;-71
2022/05/31 08:07:55;;;;;;;14.77;9.40;;;17.80;50.70;;;;;;4994784;28;20385;-71
2022/05/31 08:10:21;;;;;;;12.13;8.25;;;18.00;50.70;;;;;;4997195;28;20030;-71
2022/05/31 08:12:48;;;;;;;13.48;9.00;;;18.10;49.90;;;;;;4998174;28;20093;-72
2022/05/31 08:15:14;;;;;;;13.15;9.30;;;18.60;49.10;;;;;;4997467;28;20086;-72
2022/05/31 08:17:40;;;;;;;13.80;8.57;;;18.70;48.40;;;;;;5004621;28;20060;-72
2022/05/31 08:20:07;;;;;;;12.00;7.80;;;19.00;49.60;;;;;;5002740;28;20406;-72
2022/05/31 08:22:34;;;;;;;12.40;7.93;;;19.30;47.80;;;;;;5008457;28;20041;-74
2022/05/31 08:25:02;;;;;;;10.50;5.95;;;19.30;47.00;;;;;;5003477;28;20042;-73
2022/05/31 08:27:27;;;;;;;13.18;6.03;;;19.30;45.30;;;;;;5006121;28;20029;-72
2022/05/31 08:29:53;;;;;;;9.13;5.60;;;19.60;44.30;;;;;;4996611;28;20034;-72
2022/05/31 08:32:19;;;;;;;12.63;6.72;;;19.70;44.20;;;;;;5000515;28;20429;-72
2022/05/31 08:34:44;;;;;;;9.85;5.50;;;20.10;42.40;;;;;;5002175;28;20057;-72
2022/05/31 08:37:10;;;;;;;8.00;4.55;;;20.10;43.80;;;;;;4999573;28;20534;-72
2022/05/31 08:39:36;;;;;;;11.23;4.80;;;20.10;42.90;;;;;;5003384;28;20437;-72
2022/05/31 08:42:13;;;;;;;7.47;4.13;;;20.00;44.10;;;;;;4999395;28;20037;-72
2022/05/31 08:45:08;;;;;;;11.43;4.82;;;20.30;43.80;;;;;;4997721;28;20034;-72
2022/05/31 08:47:45;;;;;;;9.55;4.60;;;20.60;42.00;;;;;;4997806;28;20512;-72
2022/05/31 08:53:35;;;;;;;8.45;3.50;;;20.00;41.10;;;;;;5000770;28;20545;-73
2022/05/31 08:58:58;;;;;;;;;;;19.80;40.90;;;;;;5001081;28;20057;-74
2022/05/31 09:01:28;;;;;;;7.55;2.65;;;20.10;39.20;;;;;;4997817;28;20345;-72
2022/05/31 09:04:06;;;;;;;6.60;2.75;;;20.40;37.60;;;;;;4999016;28;20030;-74
2022/05/31 09:06:49;;;;;;;5.97;3.33;;;20.50;37.40;;;;;;5007856;28;20125;-72
2022/05/31 09:09:30;;;;;;;5.68;3.20;;;20.70;35.70;;;;;;5010179;28;20124;-73
2022/05/31 09:11:59;;;;;;;7.72;2.60;;;20.90;36.00;;;;;;5010207;28;20028;-72
2022/05/31 09:14:39;;;;;;;7.68;3.38;;;21.10;36.30;;;;;;4999365;28;20540;-72
2022/05/31 09:17:32;;;;;;;7.03;2.97;;;21.20;36.90;;;;;;4996262;28;20061;-71
2022/05/31 09:20:26;;;;;;;7.60;3.25;;;21.30;38.00;;;;;;4999632;28;20993;-73
2022/05/31 09:22:54;;;;;;;8.23;4.22;;;21.40;36.00;;;;;;5003606;28;20532;-71
2022/05/31 09:25:19;;;;;;;8.52;3.72;;;21.10;37.50;;;;;;4995118;28;20034;-71
2022/05/31 09:27:48;;;;;;;6.55;3.35;;;21.10;37.20;;;;;;4997423;28;20026;-71
2022/05/31 09:30:19;;;;;;;6.43;2.80;;;21.10;36.10;;;;;;5007103;28;20116;-72
2022/05/31 09:33:04;;;;;;;6.80;2.65;;;21.00;37.50;;;;;;5002521;28;20057;-71
2022/05/31 09:35:40;;;;;;;6.78;2.58;;;21.00;36.10;;;;;;5009784;28;20077;-74
2022/05/31 09:38:29;;;;;;;6.55;2.92;;;21.10;35.90;;;;;;4991425;28;20354;-72
2022/05/31 09:41:22;;;;;;;5.72;2.30;;;21.10;36.40;;;;;;4995864;28;20027;-74
2022/05/31 09:44:17;;;;;;;8.02;3.13;;;21.00;36.20;;;;;;4989702;28;20034;-73
2022/05/31 09:47:21;;;;;;;5.50;2.20;;;20.50;36.00;;;;;;4995573;28;20441;-71
2022/05/31 09:49:49;;;;;;;6.45;2.50;;;20.70;35.60;;;;;;4959336;28;20050;-73
2022/05/31 09:52:23;;;;;;;4.28;2.42;;;21.00;35.90;;;;;;4994248;28;20115;-72
2022/05/31 09:57:54;;;;;;;4.40;1.95;;;21.20;34.90;;;;;;4999882;28;20332;-73
2022/05/31 10:00:21;;;;;;;4.38;2.00;;;21.50;32.80;;;;;;4999510;28;20121;-73
2022/05/31 10:02:58;;;;;;;4.38;2.10;;;21.50;34.30;;;;;;5010423;28;20109;-73
2022/05/31 10:05:23;;;;;;;6.75;2.60;;;21.20;34.50;;;;;;5006326;28;20096;-72
2022/05/31 10:07:49;;;;;;;5.55;2.40;;;20.80;34.80;;;;;;5000445;28;20463;-72
2022/05/31 10:10:28;;;;;;;5.82;2.50;;;20.30;36.00;;;;;;5003233;28;20041;-72
2022/05/31 10:12:59;;;;;;;7.30;2.80;;;20.50;36.40;;;;;;4997166;28;20045;-74
2022/05/31 10:15:44;;;;;;;10.30;3.05;;;20.70;36.40;;;;;;4991292;28;20353;-73
2022/05/31 10:18:14;;;;;;;6.28;3.13;;;21.00;37.60;;;;;;4996512;28;20485;-73
2022/05/31 10:21:02;;;;;;;7.63;3.30;;;20.60;37.30;;;;;;4996678;28;20641;-75
2022/05/31 10:23:45;;;;;;;7.00;2.88;;;20.80;36.70;;;;;;5001876;28;20085;-72
2022/05/31 10:26:31;;;;;;;7.13;3.13;;;20.80;37.70;;;;;;5001947;28;20057;-72
2022/05/31 10:29:00;;;;;;;6.93;2.90;;;20.80;36.80;;;;;;5002209;28;20034;-75
2022/05/31 10:31:39;;;;;;;6.35;3.30;;;21.30;36.10;;;;;;5009892;28;20034;-72
2022/05/31 10:34:27;;;;;;;8.50;3.63;;;21.40;35.60;;;;;;5008691;28;20048;-72
2022/05/31 10:36:56;;;;;;;5.47;3.20;;;21.50;36.00;;;;;;5019234;28;20068;-73
2022/05/31 10:39:27;;;;;;;8.50;3.17;;;21.90;34.70;;;;;;4996446;28;20108;-73
2022/05/31 10:41:56;;;;;;;5.55;2.42;;;22.00;35.20;;;;;;4993239;28;20496;-72
2022/05/31 10:44:36;;;;;;;6.70;2.50;;;22.10;35.70;;;;;;4987822;28;20379;-72
2022/05/31 10:47:12;;;;;;;9.38;2.95;;;22.00;32.70;;;;;;5001085;28;20056;-72
2022/05/31 10:49:40;;;;;;;4.53;2.22;;;21.70;33.40;;;;;;5007341;28;20038;-72
2022/05/31 10:52:23;;;;;;;7.13;3.10;;;22.00;33.90;;;;;;5002291;28;20385;-72
2022/05/31 10:55:23;;;;;;;4.60;2.50;;;21.50;34.00;;;;;;5004292;28;20056;-72
2022/05/31 10:58:11;;;;;;;5.85;2.55;;;20.90;34.40;;;;;;5010797;28;20041;-72
2022/05/31 11:00:55;;;;;;;6.57;2.80;;;21.40;35.60;;;;;;5008351;28;20570;-73
2022/05/31 11:03:36;;;;;;;4.07;2.08;;;21.70;32.50;;;;;;5001040;28;20091;-74
2022/05/31 11:06:20;;;;;;;3.85;1.92;;;21.30;33.30;;;;;;5003441;28;20044;-75
2022/05/31 11:12:09;;;;;;;2.80;1.80;;;21.90;32.40;;;;;;5000069;28;20100;-72
2022/05/31 11:14:56;;;;;;;5.07;2.00;;;22.50;31.10;;;;;;5003315;28;20046;-75
2022/05/31 11:17:29;;;;;;;3.47;1.80;;;22.30;31.80;;;;;;5001969;28;20572;-72
2022/05/31 11:20:11;;;;;;;5.80;2.10;;;21.80;32.70;;;;;;4996625;28;20046;-72
2022/05/31 11:23:04;;;;;;;4.78;1.77;;;21.50;33.00;;;;;;4997424;28;20042;-72
2022/05/31 11:26:08;;;;;;;4.53;1.73;;;21.60;33.20;;;;;;4999877;28;20206;-72
2022/05/31 11:28:45;;;;;;;6.40;2.10;;;21.90;33.20;;;;;;4999868;28;20033;-72
2022/05/31 11:31:45;;;;;;;3.85;1.88;;;22.10;32.60;;;;;;5001367;28;20042;-72
2022/05/31 11:34:20;;;;;;;4.72;1.92;;;22.30;31.70;;;;;;5001316;28;20057;-72
2022/05/31 11:37:12;;;;;;;3.78;1.50;;;23.10;29.90;;;;;;4996989;28;20470;-73
2022/05/31 11:40:01;;;;;;;5.53;1.70;;;23.60;30.50;;;;;;4997396;28;20085;-72
2022/05/31 11:42:45;;;;;;;3.80;1.58;;;22.60;30.80;;;;;;4998742;28;20038;-72
2022/05/31 11:45:29;;;;;;;4.03;1.73;;;22.60;32.10;;;;;;5006278;28;20041;-73
2022/05/31 11:48:20;;;;;;;5.22;1.45;;;22.40;31.20;;;;;;5007597;28;20065;-73
2022/05/31 11:51:04;;;;;;;5.45;1.80;;;22.50;32.00;;;;;;4995434;28;20030;-73
2022/05/31 11:53:40;;;;;;;3.27;1.70;;;22.50;31.90;;;;;;5004551;28;20041;-73
2022/05/31 11:56:23;;;;;;;4.75;1.90;;;21.80;32.00;;;;;;5002335;28;20026;-74
2022/05/31 11:58:57;;;;;;;4.38;1.65;;;21.70;33.40;;;;;;5000155;28;20034;-73
2022/05/31 12:01:49;;;;;;;4.05;1.55;;;22.20;31.90;;;;;;4996681;28;20100;-72
2022/05/31 12:04:42;;;;;;;4.68;1.65;;;22.60;32.10;;;;;;5000360;28;20076;-75
2022/05/31 12:07:28;;;;;;;17.00;3.35;;;22.10;33.50;;;;;;5009111;28;20476;-74
2022/05/31 12:10:02;;;;;;;5.22;2.00;;;21.80;32.90;;;;;;5001822;28;20346;-73
2022/05/31 12:12:32;;;;;;;5.05;1.98;;;21.70;32.80;;;;;;5002585;28;20046;-72
2022/05/31 12:15:10;;;;;;;4.72;1.75;;;21.20;32.80;;;;;;5000692;28;20041;-72
2022/05/31 12:17:57;;;;;;;5.50;1.80;;;21.20;35.50;;;;;;5002821;28;20041;-74
2022/05/31 12:20:24;;;;;;;4.72;1.83;;;21.40;35.70;;;;;;5003830;28;20080;-72
2022/05/31 12:23:22;;;;;;;5.03;1.92;;;21.60;35.90;;;;;;5006963;28;20126;-72
2022/05/31 12:25:52;;;;;;;4.07;1.85;;;21.80;34.30;;;;;;4984080;28;20053;-72
2022/05/31 12:28:46;;;;;;;2.70;1.55;;;21.90;34.20;;;;;;4989575;28;20042;-72
2022/05/31 12:31:19;;;;;;;2.80;1.55;;;22.00;33.50;;;;;;5031298;28;20160;-72
2022/05/31 12:33:46;;;;;;;4.80;1.83;;;22.30;33.90;;;;;;4999194;28;20409;-72
2022/05/31 12:36:24;;;;;;;6.95;2.30;;;22.50;33.70;;;;;;5002334;28;20052;-73
2022/05/31 12:38:52;;;;;;;5.38;2.00;;;22.60;33.80;;;;;;4999478;28;20133;-72
2022/05/31 12:41:37;;;;;;;4.10;1.80;;;22.60;33.70;;;;;;5001414;28;20156;-72
2022/05/31 12:44:13;;;;;;;5.47;2.40;;;22.50;34.30;;;;;;5000185;28;20034;-72
2022/05/31 12:46:41;;;;;;;3.95;1.83;;;22.60;34.30;;;;;;5003082;28;20429;-72
2022/05/31 12:49:26;;;;;;;3.78;1.88;;;23.20;34.10;;;;;;5000732;28;20030;-73
2022/05/31 12:54:50;;;;;;;5.13;2.03;;;23.10;33.40;;;;;;5000937;28;20698;-73
2022/05/31 13:00:34;;;;;;;4.75;1.60;;;23.10;34.00;;;;;;5003269;28;20075;-73
2022/05/31 13:03:01;;;;;;;5.13;1.45;;;22.80;33.30;;;;;;5011243;28;20088;-72
2022/05/31 13:05:32;;;;;;;4.70;1.80;;;22.80;33.10;;;;;;5005911;28;20026;-74
2022/05/31 13:08:19;;;;;;;5.70;1.90;;;22.60;33.50;;;;;;5004987;28;20080;-72
2022/05/31 13:19:34;;;;;;;3.95;1.67;;;22.90;34.30;;;;;;5000155;28;20331;-72
2022/05/31 13:22:03;;;;;;;5.28;1.80;;;23.40;33.10;;;;;;5001839;28;20033;-72
2022/05/31 13:24:29;;;;;;;3.67;1.60;;;23.70;32.80;;;;;;4991141;28;20049;-72
2022/05/31 13:26:57;;;;;;;4.28;1.48;;;23.80;31.80;;;;;;4995483;28;20030;-72
2022/05/31 13:29:23;;;;;;;5.05;1.60;;;23.40;32.30;;;;;;4995255;28;20476;-72
2022/05/31 13:31:55;;;;;;;5.47;1.52;;;23.00;33.40;;;;;;4998100;28;20120;-72
2022/05/31 13:34:45;;;;;;;4.35;1.33;;;23.20;33.90;;;;;;4998056;28;20146;-71